Time;durP1;ratioP1;P1;durP2;ratioP2;P2;SDS_P1;SDS_P2;PMS_P1;PMS_P2;Temp;Humidity;BMP_temperature;BMP_pressure;BME280_temperature;BME280_humidity;BME280_pressure;Samples;Min_cycle;Max_cycle;Signal;HPM_P1;HPM_P2
2022/06/18 00:00:17;;;;;;;3.63;2.40;;;17.40;93.80;;;;;;5010674;28;20041;-36
2022/06/18 00:02:43;;;;;;;7.35;2.70;;;17.30;94.00;;;;;;5010369;28;20370;-36
2022/06/18 00:05:11;;;;;;;5.43;2.55;;;17.40;94.10;;;;;;5010056;28;20037;-36
2022/06/18 00:07:42;;;;;;;4.38;2.70;;;17.30;94.30;;;;;;5010026;28;20053;-36
2022/06/18 00:10:14;;;;;;;4.32;2.55;;;17.30;94.50;;;;;;5009376;28;20065;-36
2022/06/18 00:15:28;;;;;;;5.57;2.20;;;17.30;95.00;;;;;;5009831;28;20057;-36
2022/06/18 00:17:54;;;;;;;4.03;2.95;;;17.20;95.20;;;;;;5009669;28;20124;-36
2022/06/18 00:20:22;;;;;;;4.72;3.05;;;17.20;95.60;;;;;;5009469;28;20069;-36
2022/06/18 00:22:51;;;;;;;7.43;3.05;;;17.20;95.70;;;;;;5010049;28;20054;-36
2022/06/18 00:25:25;;;;;;;4.95;2.55;;;17.30;95.90;;;;;;5010012;28;20388;-36
2022/06/18 00:27:51;;;;;;;8.15;2.50;;;17.20;96.30;;;;;;5009999;28;20052;-36
2022/06/18 00:30:20;;;;;;;5.80;3.15;;;17.20;96.20;;;;;;5009872;28;20042;-36
2022/06/18 00:32:46;;;;;;;4.95;3.08;;;17.20;96.40;;;;;;5009834;28;20184;-36
2022/06/18 00:35:12;;;;;;;5.43;2.92;;;17.20;96.60;;;;;;5009691;28;20089;-36
2022/06/18 00:37:39;;;;;;;5.22;2.83;;;17.20;96.90;;;;;;5009689;28;20058;-36
2022/06/18 00:40:19;;;;;;;5.05;2.55;;;17.10;97.10;;;;;;5008105;28;20055;-37
2022/06/18 00:42:45;;;;;;;3.88;2.90;;;17.20;97.60;;;;;;5009490;28;20038;-36
2022/06/18 00:45:17;;;;;;;4.28;2.70;;;17.20;97.40;;;;;;5009340;28;20042;-36
2022/06/18 00:48:10;;;;;;;3.92;2.67;;;17.20;97.40;;;;;;5009453;28;20136;-36
2022/06/18 00:51:07;;;;;;;5.10;3.40;;;17.10;98.20;;;;;;5009153;28;20127;-36
2022/06/18 00:53:42;;;;;;;3.97;2.95;;;17.10;98.30;;;;;;5009236;28;20440;-36
2022/06/18 00:56:12;;;;;;;7.38;3.33;;;17.10;98.20;;;;;;5008033;28;20053;-36
2022/06/18 00:58:56;;;;;;;7.13;3.28;;;17.30;98.20;;;;;;5009605;28;20095;-36
2022/06/18 01:01:28;;;;;;;4.13;3.45;;;17.10;99.00;;;;;;5009193;28;20049;-36
2022/06/18 01:03:55;;;;;;;7.88;3.88;;;17.00;98.50;;;;;;5009185;28;20046;-36
2022/06/18 01:06:32;;;;;;;6.60;3.10;;;17.00;98.60;;;;;;5008192;28;20050;-36
2022/06/18 01:09:03;;;;;;;5.63;3.42;;;17.00;99.50;;;;;;5009259;28;20034;-36
2022/06/18 01:11:33;;;;;;;7.50;3.60;;;16.90;99.30;;;;;;5008881;28;20044;-36
2022/06/18 01:14:04;;;;;;;5.55;3.03;;;16.90;99.50;;;;;;5009534;28;20050;-36
2022/06/18 01:16:31;;;;;;;5.90;3.70;;;17.00;99.60;;;;;;5009172;28;20048;-36
2022/06/18 01:18:57;;;;;;;6.25;3.70;;;16.90;99.90;;;;;;5009014;28;20512;-36
2022/06/18 01:21:40;;;;;;;5.35;3.80;;;16.90;99.90;;;;;;5008598;28;20457;-36
2022/06/18 01:24:21;;;;;;;6.53;4.15;;;16.90;99.90;;;;;;5008913;28;20056;-36
2022/06/18 01:26:52;;;;;;;6.18;3.28;;;16.90;99.90;;;;;;5009103;28;20042;-36
2022/06/18 01:29:18;;;;;;;5.70;4.05;;;16.90;99.90;;;;;;5009279;28;20085;-36
2022/06/18 01:31:46;;;;;;;6.03;3.92;;;16.80;99.90;;;;;;5008912;28;20476;-36
2022/06/18 01:34:14;;;;;;;6.63;4.35;;;16.80;99.90;;;;;;5008944;28;20121;-36
2022/06/18 01:36:40;;;;;;;6.15;4.10;;;17.00;99.90;;;;;;5008803;28;20402;-36
2022/06/18 01:39:15;;;;;;;11.35;4.75;;;16.70;99.90;;;;;;5008597;28;20052;-36
2022/06/18 01:41:52;;;;;;;6.63;4.57;;;16.70;99.90;;;;;;5008229;28;20405;-36
2022/06/18 01:44:27;;;;;;;6.43;4.57;;;16.70;99.90;;;;;;5008587;28;20037;-36
2022/06/18 01:46:56;;;;;;;5.85;4.57;;;16.60;99.90;;;;;;5007964;28;20045;-36
2022/06/18 01:49:30;;;;;;;4.40;4.00;;;16.60;99.90;;;;;;5008384;28;20453;-36
2022/06/18 01:52:00;;;;;;;7.20;4.47;;;16.60;99.90;;;;;;5007941;28;20489;-36
2022/06/18 01:54:31;;;;;;;7.10;5.00;;;16.70;99.90;;;;;;5008396;28;20073;-36
2022/06/18 01:57:03;;;;;;;8.00;4.60;;;16.60;99.90;;;;;;5008605;28;20037;-36
2022/06/18 01:59:37;;;;;;;7.30;4.50;;;16.60;99.90;;;;;;5008512;28;20045;-36
2022/06/18 02:02:03;;;;;;;8.85;4.40;;;16.60;99.90;;;;;;5007898;28;20053;-36
2022/06/18 02:04:31;;;;;;;7.20;4.50;;;16.60;99.90;;;;;;5008329;28;20372;-36
2022/06/18 02:06:57;;;;;;;8.73;4.47;;;16.80;99.90;;;;;;5007740;28;20452;-36
2022/06/18 02:09:44;;;;;;;4.90;3.83;;;16.50;99.90;;;;;;5007917;28;20184;-36
2022/06/18 02:12:14;;;;;;;6.63;4.53;;;16.50;99.90;;;;;;5008087;28;20096;-36
2022/06/18 02:14:45;;;;;;;7.13;4.25;;;16.50;99.90;;;;;;5007571;28;20046;-36
2022/06/18 02:17:17;;;;;;;6.30;4.75;;;16.50;99.90;;;;;;5007659;28;20053;-36
2022/06/18 02:19:50;;;;;;;7.10;4.95;;;16.50;99.90;;;;;;5007630;28;20219;-36
2022/06/18 02:22:16;;;;;;;6.18;4.85;;;17.30;99.90;;;;;;5007777;28;20050;-36
2022/06/18 02:24:42;;;;;;;7.07;4.72;;;16.50;99.90;;;;;;5007452;28;20061;-36
2022/06/18 02:27:12;;;;;;;6.07;4.57;;;16.80;99.90;;;;;;5007583;28;20041;-36
2022/06/18 02:29:38;;;;;;;6.95;5.07;;;16.40;99.90;;;;;;5007973;28;20046;-44
2022/06/18 02:32:09;;;;;;;7.78;5.07;;;16.40;99.90;;;;;;5008007;28;20103;-36
2022/06/18 02:34:35;;;;;;;8.20;5.28;;;16.30;99.90;;;;;;5007710;28;20092;-36
2022/06/18 02:37:08;;;;;;;10.02;5.38;;;16.30;99.90;;;;;;5007462;28;20077;-36
2022/06/18 02:39:36;;;;;;;8.02;5.57;;;16.30;99.90;;;;;;5007626;28;20077;-36
2022/06/18 02:42:06;;;;;;;8.20;5.18;;;16.30;99.90;;;;;;5007374;28;20068;-36
2022/06/18 02:44:32;;;;;;;7.65;4.55;;;16.30;99.90;;;;;;5007464;28;20536;-36
2022/06/18 02:47:06;;;;;;;10.35;5.15;;;16.20;99.90;;;;;;5005999;28;20054;-36
2022/06/18 02:49:35;;;;;;;5.40;4.28;;;16.20;99.90;;;;;;5008218;28;20086;-36
2022/06/18 02:52:03;;;;;;;7.18;5.07;;;14.50;99.90;;;;;;5007259;28;20046;-36
2022/06/18 02:54:29;;;;;;;7.35;4.43;;;16.10;99.90;;;;;;5007632;28;20405;-36
2022/06/18 02:56:56;;;;;;;7.00;5.13;;;16.00;99.90;;;;;;5006961;28;20042;-36
2022/06/18 02:59:22;;;;;;;8.48;5.85;;;15.90;99.90;;;;;;5007348;28;20045;-36
2022/06/18 03:01:47;;;;;;;11.07;6.47;;;15.90;99.90;;;;;;5007188;28;20061;-36
2022/06/18 03:04:13;;;;;;;7.47;5.90;;;16.00;99.90;;;;;;5007197;28;20057;-36
2022/06/18 03:06:39;;;;;;;6.78;5.35;;;16.00;99.90;;;;;;5007837;28;20081;-36
2022/06/18 03:09:05;;;;;;;6.72;5.65;;;17.70;99.90;;;;;;5007414;28;20050;-36
2022/06/18 03:14:17;;;;;;;10.95;6.63;;;16.00;99.90;;;;;;5007311;28;20053;-36
2022/06/18 03:16:43;;;;;;;8.88;6.95;;;16.30;99.90;;;;;;5006837;28;20038;-36
2022/06/18 03:19:23;;;;;;;10.00;6.97;;;16.00;99.90;;;;;;5007476;28;20042;-36
2022/06/18 03:21:51;;;;;;;8.68;5.88;;;16.00;99.90;;;;;;5007213;28;20058;-36
2022/06/18 03:24:17;;;;;;;8.88;6.90;;;16.00;99.90;;;;;;5007546;28;20374;-36
2022/06/18 03:26:43;;;;;;;8.63;6.93;;;16.00;99.90;;;;;;5007314;28;20073;-36
2022/06/18 03:29:10;;;;;;;7.95;6.85;;;16.00;99.90;;;;;;5008729;28;20041;-36
2022/06/18 03:31:36;;;;;;;10.25;6.97;;;16.00;99.90;;;;;;5010964;28;20050;-36
2022/06/18 03:34:02;;;;;;;9.63;7.43;;;16.30;99.90;;;;;;5010839;28;20425;-36
2022/06/18 03:36:29;;;;;;;10.70;7.60;;;16.10;99.90;;;;;;5011015;28;20042;-36
2022/06/18 03:38:54;;;;;;;9.32;7.50;;;16.10;99.90;;;;;;5010790;28;20523;-36
2022/06/18 03:41:21;;;;;;;9.63;8.07;;;16.20;99.90;;;;;;5011051;28;20124;-36
2022/06/18 03:43:47;;;;;;;10.63;7.15;;;16.20;99.90;;;;;;5010687;28;20073;-36
2022/06/18 03:46:16;;;;;;;7.85;6.93;;;16.30;99.90;;;;;;5010712;28;20077;-36
2022/06/18 03:48:47;;;;;;;13.63;7.97;;;16.30;99.90;;;;;;5010607;28;20052;-36
2022/06/18 03:51:13;;;;;;;9.73;7.07;;;16.40;99.90;;;;;;5010595;28;20470;-36
2022/06/18 03:53:40;;;;;;;8.93;7.28;;;16.50;99.90;;;;;;5010429;28;20049;-36
2022/06/18 03:56:06;;;;;;;10.18;7.55;;;16.70;99.90;;;;;;5008703;28;20371;-36
2022/06/18 03:58:32;;;;;;;11.48;7.95;;;16.60;99.90;;;;;;5010085;28;20442;-36
2022/06/18 04:00:57;;;;;;;11.07;8.13;;;16.60;99.90;;;;;;5010111;28;20124;-36
2022/06/18 04:03:23;;;;;;;13.57;8.73;;;16.60;99.90;;;;;;5010325;28;20041;-39
2022/06/18 04:05:49;;;;;;;11.90;8.80;;;16.90;99.90;;;;;;5010194;28;20053;-36
2022/06/18 04:08:19;;;;;;;11.90;7.80;;;17.00;99.90;;;;;;5010408;28;20070;-36
2022/06/18 04:10:45;;;;;;;9.75;7.57;;;16.80;99.90;;;;;;5009618;28;20042;-36
2022/06/18 04:13:10;;;;;;;9.13;7.75;;;16.90;99.90;;;;;;5009825;28;20052;-36
2022/06/18 04:15:36;;;;;;;11.80;8.77;;;17.10;99.90;;;;;;5010336;28;20124;-36
2022/06/18 04:18:03;;;;;;;11.30;8.63;;;17.30;99.90;;;;;;5009809;28;20495;-36
2022/06/18 04:20:35;;;;;;;12.77;8.40;;;17.90;99.90;;;;;;5009655;28;20510;-36
2022/06/18 04:23:01;;;;;;;;;;;18.10;99.90;;;;;;5009978;28;20497;-36
2022/06/18 04:25:27;;;;;;;13.10;8.30;;;18.20;99.90;;;;;;5010352;28;19921;-36
2022/06/18 04:27:57;;;;;;;10.85;7.80;;;18.40;99.90;;;;;;5009784;28;20052;-36
2022/06/18 04:30:24;;;;;;;15.95;8.93;;;18.50;99.90;;;;;;5009958;28;20045;-36
2022/06/18 04:32:49;;;;;;;10.88;7.57;;;18.60;99.90;;;;;;5009566;28;20545;-36
2022/06/18 04:35:15;;;;;;;11.10;8.23;;;18.60;99.90;;;;;;5009085;28;20041;-36
2022/06/18 04:37:43;;;;;;;18.55;8.65;;;18.70;99.90;;;;;;5009436;28;20052;-36
2022/06/18 04:40:19;;;;;;;13.48;8.20;;;18.70;99.90;;;;;;5009098;28;20049;-36
2022/06/18 04:42:45;;;;;;;13.18;9.13;;;18.80;99.90;;;;;;5009312;28;20042;-36
2022/06/18 04:45:11;;;;;;;12.45;8.57;;;18.90;99.90;;;;;;5009322;28;20060;-37
2022/06/18 04:47:37;;;;;;;12.45;8.30;;;19.00;99.90;;;;;;5009467;28;20522;-36
2022/06/18 04:50:04;;;;;;;14.52;8.57;;;19.10;99.90;;;;;;5009403;28;20038;-37
2022/06/18 04:52:30;;;;;;;12.23;8.40;;;19.20;99.90;;;;;;5009565;28;20046;-36
2022/06/18 04:54:56;;;;;;;10.02;8.20;;;19.30;99.90;;;;;;5009314;28;20046;-37
2022/06/18 04:57:22;;;;;;;13.48;10.02;;;19.30;99.90;;;;;;5007876;28;20405;-37
2022/06/18 04:59:48;;;;;;;17.10;10.30;;;19.40;99.90;;;;;;5009494;28;20046;-37
2022/06/18 05:02:26;;;;;;;16.52;8.55;;;19.50;99.90;;;;;;5009440;28;20038;-37
2022/06/18 05:04:54;;;;;;;13.52;8.95;;;19.80;99.90;;;;;;5009212;28;20042;-37
2022/06/18 05:07:19;;;;;;;10.65;8.20;;;19.90;99.90;;;;;;5008712;28;20494;-36
2022/06/18 05:09:45;;;;;;;14.68;8.95;;;20.30;99.90;;;;;;5008322;28;20053;-36
2022/06/18 05:12:12;;;;;;;12.52;9.77;;;20.10;99.90;;;;;;5009081;28;20042;-36
2022/06/18 05:14:38;;;;;;;12.50;8.57;;;20.10;99.90;;;;;;5008615;28;20131;-36
2022/06/18 05:17:06;;;;;;;14.13;9.75;;;20.30;99.90;;;;;;5009137;28;20048;-36
2022/06/18 05:19:33;;;;;;;15.18;9.13;;;20.40;99.90;;;;;;5009129;28;20050;-36
2022/06/18 05:22:01;;;;;;;12.52;9.82;;;20.50;99.90;;;;;;4989386;28;20549;-36
2022/06/18 05:24:26;;;;;;;16.45;9.80;;;20.70;99.90;;;;;;4989287;28;20057;-36
2022/06/18 05:26:56;;;;;;;13.77;9.48;;;20.80;99.90;;;;;;4989525;28;20406;-36
2022/06/18 05:29:23;;;;;;;13.35;9.77;;;21.00;99.90;;;;;;4989066;28;20046;-36
2022/06/18 05:31:48;;;;;;;23.00;10.07;;;21.10;99.90;;;;;;4989125;28;20046;-36
2022/06/18 05:34:14;;;;;;;15.48;10.18;;;21.30;99.90;;;;;;4988779;28;20047;-36
2022/06/18 05:36:40;;;;;;;12.57;8.45;;;21.50;99.70;;;;;;4989029;28;20057;-36
2022/06/18 05:39:07;;;;;;;16.50;9.10;;;21.70;99.20;;;;;;4988982;28;20378;-36
2022/06/18 05:41:33;;;;;;;12.18;8.57;;;21.90;98.60;;;;;;4988908;28;20092;-36
2022/06/18 05:43:59;;;;;;;16.13;8.48;;;22.10;98.40;;;;;;4989156;28;20038;-37
2022/06/18 05:46:26;;;;;;;13.93;8.38;;;22.30;97.90;;;;;;4988907;28;20042;-37
2022/06/18 05:48:53;;;;;;;15.25;8.90;;;22.50;97.40;;;;;;4988799;28;20057;-36
2022/06/18 05:51:19;;;;;;;16.38;8.30;;;22.60;96.80;;;;;;4988805;28;20486;-37
2022/06/18 05:53:44;;;;;;;14.95;9.98;;;22.80;96.20;;;;;;4989590;28;20045;-37
2022/06/18 05:56:11;;;;;;;18.73;9.35;;;23.00;95.50;;;;;;4987589;28;20046;-37
2022/06/18 05:58:37;;;;;;;15.68;9.77;;;23.90;94.20;;;;;;4989426;28;20049;-37
2022/06/18 06:01:03;;;;;;;11.70;7.35;;;24.30;93.00;;;;;;4989156;28;20397;-37
2022/06/18 06:03:29;;;;;;;17.75;8.23;;;25.00;91.80;;;;;;4989185;28;20049;-36
2022/06/18 06:05:55;;;;;;;14.95;7.60;;;25.80;89.30;;;;;;4987833;28;20050;-37
2022/06/18 06:08:21;;;;;;;12.75;7.05;;;26.50;85.80;;;;;;4988667;28;20531;-37
2022/06/18 06:13:31;;;;;;;11.77;7.05;;;26.50;83.90;;;;;;4988967;28;20148;-37
2022/06/18 06:15:57;;;;;;;12.45;6.95;;;26.10;84.60;;;;;;4988732;28;20505;-37
2022/06/18 06:18:24;;;;;;;12.82;7.82;;;26.40;83.90;;;;;;4988667;28;20132;-37
2022/06/18 06:20:52;;;;;;;16.15;8.13;;;27.80;80.70;;;;;;4998692;28;20147;-37
2022/06/18 06:23:19;;;;;;;15.13;8.63;;;29.00;76.70;;;;;;5007822;28;20077;-37
2022/06/18 06:25:46;;;;;;;14.90;7.25;;;29.70;73.30;;;;;;5007847;28;20046;-37
2022/06/18 06:28:14;;;;;;;14.75;7.80;;;29.80;71.30;;;;;;5007267;28;20524;-37
2022/06/18 06:30:39;;;;;;;14.70;8.88;;;29.20;72.00;;;;;;5007602;28;20041;-37
2022/06/18 06:33:05;;;;;;;10.40;7.40;;;29.30;71.80;;;;;;5007594;28;20084;-37
2022/06/18 06:35:31;;;;;;;20.15;8.68;;;30.40;70.20;;;;;;5007421;28;20045;-37
2022/06/18 06:37:57;;;;;;;13.27;7.90;;;31.40;67.60;;;;;;5008185;28;20120;-37
2022/06/18 06:40:24;;;;;;;13.48;8.40;;;32.20;65.20;;;;;;5006796;28;20049;-37
2022/06/18 06:42:53;;;;;;;14.77;8.60;;;32.80;63.40;;;;;;5007748;28;20046;-37
2022/06/18 06:45:22;;;;;;;17.48;8.80;;;33.60;61.30;;;;;;5007242;28;20042;-37
2022/06/18 06:47:48;;;;;;;11.43;6.85;;;34.20;59.80;;;;;;5007782;28;20483;-37
2022/06/18 06:50:15;;;;;;;13.38;6.90;;;34.80;58.60;;;;;;5007412;28;20038;-37
2022/06/18 06:52:42;;;;;;;14.98;6.88;;;35.30;57.50;;;;;;5005620;28;20038;-38
2022/06/18 06:58:03;;;;;;;9.50;6.43;;;36.30;54.80;;;;;;5006889;28;20436;-38
2022/06/18 07:00:31;;;;;;;11.02;5.60;;;36.80;53.90;;;;;;5007168;28;20065;-38
2022/06/18 07:02:56;;;;;;;11.95;5.85;;;37.20;52.90;;;;;;5007186;28;20538;-38
2022/06/18 07:05:22;;;;;;;13.68;6.43;;;37.50;52.00;;;;;;5010536;28;20046;-38
2022/06/18 07:07:48;;;;;;;13.50;6.82;;;37.80;51.10;;;;;;5011506;28;20512;-38
2022/06/18 07:10:13;;;;;;;9.75;5.15;;;38.10;50.20;;;;;;5010197;28;20046;-38
2022/06/18 07:12:39;;;;;;;12.10;5.97;;;38.50;50.10;;;;;;5010997;28;20121;-37
2022/06/18 07:15:06;;;;;;;12.15;5.05;;;38.60;49.10;;;;;;5010974;28;20038;-37
2022/06/18 07:17:33;;;;;;;12.35;4.90;;;38.90;48.40;;;;;;5010737;28;20041;-38
2022/06/18 07:19:58;;;;;;;11.23;4.75;;;39.30;47.50;;;;;;5011119;28;20061;-37
2022/06/18 07:22:25;;;;;;;8.18;3.92;;;39.50;46.90;;;;;;5010915;28;20377;-37
2022/06/18 07:24:51;;;;;;;9.43;4.35;;;39.70;46.30;;;;;;5011008;28;20045;-38
2022/06/18 07:27:17;;;;;;;10.63;4.38;;;39.80;45.60;;;;;;5010619;28;20041;-38
2022/06/18 07:29:42;;;;;;;10.60;4.65;;;40.10;45.70;;;;;;5010735;28;20056;-38
2022/06/18 07:32:16;;;;;;;11.63;4.10;;;40.20;45.70;;;;;;5011028;28;20120;-38
2022/06/18 07:34:42;;;;;;;6.97;4.20;;;40.50;46.00;;;;;;5009233;28;20050;-38
2022/06/18 07:37:08;;;;;;;6.20;2.90;;;40.70;45.00;;;;;;5011129;28;20042;-38
2022/06/18 07:39:34;;;;;;;5.50;2.58;;;41.00;44.70;;;;;;5010613;28;20041;-38
2022/06/18 07:42:01;;;;;;;9.95;3.35;;;41.20;44.40;;;;;;5011193;28;20120;-38
2022/06/18 07:44:27;;;;;;;10.20;2.60;;;41.30;44.20;;;;;;5011014;28;20038;-38
2022/06/18 07:46:57;;;;;;;8.13;2.38;;;41.10;43.80;;;;;;5011137;28;20433;-37
2022/06/18 07:49:23;;;;;;;6.75;2.33;;;41.10;44.00;;;;;;5009115;28;20053;-38
2022/06/18 07:51:49;;;;;;;5.95;2.08;;;41.20;43.20;;;;;;5010617;28;20045;-38
2022/06/18 07:54:17;;;;;;;6.28;1.75;;;41.60;42.90;;;;;;5010530;28;20401;-38
2022/06/18 07:56:43;;;;;;;7.97;2.28;;;41.90;43.10;;;;;;5010500;28;20048;-38
2022/06/18 07:59:08;;;;;;;8.82;2.30;;;42.20;42.50;;;;;;5010334;28;20046;-38
2022/06/18 08:01:34;;;;;;;4.13;1.50;;;42.20;42.40;;;;;;5010253;28;20090;-38
2022/06/18 08:04:00;;;;;;;5.13;1.77;;;42.50;43.00;;;;;;5010517;28;20087;-38
2022/06/18 08:06:26;;;;;;;5.80;2.47;;;42.70;42.40;;;;;;5010374;28;20042;-38
2022/06/18 08:08:52;;;;;;;8.00;2.65;;;42.70;42.10;;;;;;5010140;28;20809;-38
2022/06/18 08:11:20;;;;;;;7.63;2.88;;;42.80;41.50;;;;;;5010244;28;20149;-38
2022/06/18 08:13:46;;;;;;;13.15;2.80;;;42.90;41.50;;;;;;5010096;28;20070;-39
2022/06/18 08:16:14;;;;;;;8.25;1.98;;;43.00;41.00;;;;;;5009505;28;20064;-38
2022/06/18 08:18:40;;;;;;;6.05;1.95;;;43.20;41.10;;;;;;5010085;28;20048;-38
2022/06/18 08:21:18;;;;;;;5.80;1.80;;;43.20;41.10;;;;;;5009385;28;20057;-38
2022/06/18 08:23:45;;;;;;;9.32;2.08;;;43.20;47.60;;;;;;5009214;28;20076;-38
2022/06/18 08:26:11;;;;;;;7.50;1.65;;;43.10;40.90;;;;;;5009853;28;20056;-38
2022/06/18 08:28:37;;;;;;;6.75;1.88;;;43.50;40.50;;;;;;5009573;28;20041;-38
2022/06/18 08:31:05;;;;;;;5.85;1.30;;;43.80;40.90;;;;;;5009570;28;20049;-38
2022/06/18 08:33:31;;;;;;;6.43;1.60;;;43.80;40.40;;;;;;5007903;28;20379;-38
2022/06/18 08:35:59;;;;;;;6.82;2.25;;;43.80;39.50;;;;;;5009371;28;20434;-38
2022/06/18 08:38:25;;;;;;;4.32;1.27;;;43.90;41.30;;;;;;5009774;28;20042;-38
2022/06/18 08:41:24;;;;;;;4.72;1.65;;;44.10;49.20;;;;;;5009641;28;20037;-38
2022/06/18 08:44:24;;;;;;;4.83;1.50;;;44.40;49.40;;;;;;5009458;28;20101;-38
2022/06/18 08:47:08;;;;;;;4.00;1.38;;;44.40;40.50;;;;;;5009149;28;20493;-38
2022/06/18 08:50:11;;;;;;;5.00;1.80;;;44.60;39.90;;;;;;5008767;28;20084;-38
2022/06/18 08:52:58;;;;;;;4.47;1.55;;;44.60;39.40;;;;;;5008868;28;20052;-39
2022/06/18 08:55:48;;;;;;;7.88;2.17;;;44.70;39.10;;;;;;5009325;28;20364;-38
2022/06/18 08:58:33;;;;;;;7.05;2.97;;;44.90;39.20;;;;;;5009224;28;20128;-38
2022/06/18 09:01:17;;;;;;;5.60;1.83;;;44.90;39.10;;;;;;5008963;28;20045;-38
2022/06/18 09:04:04;;;;;;;5.93;2.42;;;45.00;39.60;;;;;;5009182;28;20046;-38
2022/06/18 09:06:48;;;;;;;6.68;2.30;;;44.90;39.40;;;;;;5009249;28;20042;-39
2022/06/18 09:09:39;;;;;;;5.57;2.00;;;45.00;38.70;;;;;;5009059;28;20089;-38
2022/06/18 09:12:41;;;;;;;7.53;2.45;;;45.10;39.00;;;;;;5009009;28;20053;-38
2022/06/18 09:15:22;;;;;;;5.50;2.15;;;44.90;39.00;;;;;;5018089;28;20058;-39
2022/06/18 09:17:58;;;;;;;5.95;2.35;;;45.10;39.20;;;;;;5009276;28;20117;-38
2022/06/18 09:20:46;;;;;;;7.45;2.47;;;45.10;39.00;;;;;;5008162;28;20526;-38
2022/06/18 09:23:36;;;;;;;6.93;1.77;;;44.90;38.70;;;;;;5009194;28;20570;-39
2022/06/18 09:26:07;;;;;;;6.05;2.30;;;44.50;39.40;;;;;;5008732;28;20042;-38
2022/06/18 09:28:46;;;;;;;9.55;1.95;;;44.20;39.50;;;;;;5008489;28;20279;-38
2022/06/18 09:31:22;;;;;;;5.18;1.45;;;44.70;39.90;;;;;;5008976;28;20049;-38
2022/06/18 09:33:59;;;;;;;7.45;1.85;;;44.60;39.60;;;;;;5008481;28;20049;-38
2022/06/18 09:36:35;;;;;;;4.93;1.30;;;43.40;39.40;;;;;;5008452;28;20069;-38
2022/06/18 09:39:10;;;;;;;4.38;1.50;;;43.30;40.10;;;;;;5008132;28;20653;-38
2022/06/18 09:41:50;;;;;;;3.78;1.25;;;43.50;39.00;;;;;;5008341;28;20112;-38
2022/06/18 09:44:21;;;;;;;4.90;1.07;;;43.50;40.20;;;;;;5007905;28;20124;-38
2022/06/18 09:46:59;;;;;;;3.63;0.80;;;43.40;38.80;;;;;;5008289;28;20269;-38
2022/06/18 09:49:25;;;;;;;6.65;1.67;;;43.80;40.10;;;;;;5008260;28;20037;-38
2022/06/18 09:52:04;;;;;;;7.80;1.60;;;43.90;40.00;;;;;;5008414;28;20044;-38
2022/06/18 09:54:48;;;;;;;4.40;0.70;;;43.80;40.60;;;;;;5008198;28;20046;-39
2022/06/18 09:57:17;;;;;;;7.65;1.33;;;43.90;42.70;;;;;;5007798;28;20500;-39
2022/06/18 09:59:49;;;;;;;3.53;1.00;;;44.00;39.70;;;;;;5007540;28;20041;-39
2022/06/18 10:02:27;;;;;;;3.03;0.88;;;43.90;38.80;;;;;;5007705;28;20085;-39
2022/06/18 10:07:41;;;;;;;5.22;1.50;;;43.80;39.10;;;;;;5007735;28;20052;-38
2022/06/18 10:10:17;;;;;;;5.05;0.90;;;43.70;38.70;;;;;;5007174;28;20077;-38
2022/06/18 10:12:48;;;;;;;4.38;0.80;;;43.70;39.00;;;;;;5007982;28;20053;-39
2022/06/18 10:15:17;;;;;;;4.32;0.80;;;43.70;39.30;;;;;;5007588;28;20042;-43
2022/06/18 10:17:45;;;;;;;6.32;0.90;;;43.60;40.10;;;;;;5001837;28;20041;-43
2022/06/18 10:20:20;;;;;;;1.67;0.60;;;43.50;39.70;;;;;;5011826;28;20091;-40
2022/06/18 10:23:04;;;;;;;6.50;0.70;;;43.20;39.90;;;;;;5023836;28;20078;-39
2022/06/18 10:25:43;;;;;;;4.28;0.70;;;42.80;40.90;;;;;;5025298;28;20071;-41
2022/06/18 10:28:15;;;;;;;3.05;0.60;;;42.80;40.90;;;;;;5025190;28;20095;-40
2022/06/18 10:31:01;;;;;;;3.92;0.52;;;42.30;41.20;;;;;;5024722;28;20041;-39
2022/06/18 10:33:26;;;;;;;3.08;0.77;;;41.80;41.70;;;;;;5024684;28;20080;-39
2022/06/18 10:36:00;;;;;;;3.20;0.60;;;41.30;42.30;;;;;;5024910;28;20110;-41
2022/06/18 10:38:59;;;;;;;6.93;0.57;;;41.00;41.70;;;;;;5025557;28;20037;-39
2022/06/18 10:41:34;;;;;;;2.28;0.60;;;40.30;42.30;;;;;;5024863;28;20350;-39
2022/06/18 10:44:19;;;;;;;3.17;0.50;;;39.40;43.20;;;;;;5025378;28;20189;-38
2022/06/18 10:46:45;;;;;;;4.05;0.30;;;38.80;44.70;;;;;;5025282;28;20120;-38
2022/06/18 10:49:11;;;;;;;3.42;0.47;;;38.80;45.20;;;;;;5025514;28;20124;-38
2022/06/18 10:51:47;;;;;;;3.72;0.50;;;39.00;44.70;;;;;;5024741;28;20499;-38
2022/06/18 10:54:13;;;;;;;4.60;0.55;;;38.40;43.10;;;;;;5025178;28;20045;-38
2022/06/18 10:56:50;;;;;;;3.65;0.60;;;37.60;45.30;;;;;;5025075;28;20073;-38
2022/06/18 10:59:34;;;;;;;1.67;0.52;;;36.90;47.90;;;;;;5024970;28;20038;-38
2022/06/18 11:02:11;;;;;;;1.58;0.30;;;36.00;47.40;;;;;;5024713;28;20046;-38
2022/06/18 11:04:38;;;;;;;2.85;0.40;;;35.20;48.40;;;;;;5025193;28;20054;-37
2022/06/18 11:07:07;;;;;;;3.22;0.40;;;34.80;49.30;;;;;;5024839;28;20496;-37
2022/06/18 11:09:37;;;;;;;2.05;0.45;;;34.30;49.40;;;;;;5024588;28;20049;-38
2022/06/18 11:12:24;;;;;;;3.87;0.40;;;33.90;51.20;;;;;;5022879;28;20045;-37
2022/06/18 11:14:49;;;;;;;2.28;0.38;;;33.50;52.40;;;;;;5023229;28;20707;-41
2022/06/18 11:17:36;;;;;;;1.42;0.43;;;33.30;52.20;;;;;;5024502;28;20088;-39
2022/06/18 11:20:19;;;;;;;2.15;0.50;;;33.20;52.60;;;;;;5024453;28;20520;-38
2022/06/18 11:22:51;;;;;;;2.55;0.30;;;33.00;53.20;;;;;;5024615;28;20084;-44
2022/06/18 11:25:28;;;;;;;2.28;0.47;;;32.70;53.90;;;;;;5025051;28;20060;-43
2022/06/18 11:27:58;;;;;;;1.90;0.40;;;32.40;53.90;;;;;;5007101;28;20048;-43
2022/06/18 11:30:40;;;;;;;3.17;0.50;;;32.20;54.10;;;;;;5025298;28;20092;-55
2022/06/18 11:33:20;;;;;;;2.63;0.50;;;32.00;55.90;;;;;;5023303;28;20496;-55
2022/06/18 11:35:50;;;;;;;2.30;0.40;;;31.80;54.60;;;;;;5023187;28;20085;-55
2022/06/18 11:38:25;;;;;;;1.60;0.30;;;31.30;56.00;;;;;;5025003;28;20104;-55
2022/06/18 11:40:53;;;;;;;1.88;0.40;;;30.80;56.30;;;;;;5024076;28;20072;-55
2022/06/18 11:43:39;;;;;;;3.45;0.50;;;30.70;57.60;;;;;;5024860;28;20053;-55
2022/06/18 11:46:12;;;;;;;1.58;0.43;;;30.40;58.00;;;;;;5024640;28;20056;-55
2022/06/18 11:49:07;;;;;;;2.45;0.55;;;30.40;58.80;;;;;;5025027;28;20052;-54
2022/06/18 11:51:57;;;;;;;2.50;0.40;;;30.40;57.90;;;;;;5026849;28;20444;-52
2022/06/18 11:54:39;;;;;;;3.80;0.40;;;30.40;58.90;;;;;;5028124;28;20077;-43
2022/06/18 11:57:04;;;;;;;2.17;0.30;;;30.50;58.70;;;;;;5028522;28;20044;-48
2022/06/18 11:59:52;;;;;;;2.15;0.43;;;30.70;58.90;;;;;;5029521;28;20037;-49
2022/06/18 12:02:41;;;;;;;1.77;0.35;;;30.90;59.20;;;;;;5027986;28;20483;-50
2022/06/18 12:05:42;;;;;;;1.63;0.40;;;30.90;58.70;;;;;;5027539;28;20489;-52
2022/06/18 12:08:11;;;;;;;4.68;0.60;;;30.60;57.00;;;;;;5027635;28;20049;-48
2022/06/18 12:10:46;;;;;;;2.92;0.43;;;30.20;56.40;;;;;;5028198;28;20714;-53
2022/06/18 12:13:35;;;;;;;1.75;0.40;;;29.80;57.80;;;;;;5027921;28;20061;-53
2022/06/18 12:16:36;;;;;;;3.70;0.40;;;29.70;60.40;;;;;;5026216;28;20049;-53
2022/06/18 12:19:26;;;;;;;6.00;0.68;;;29.60;60.20;;;;;;5027176;28;20051;-48
2022/06/18 12:22:11;;;;;;;2.00;0.38;;;29.60;61.10;;;;;;5027434;28;20103;-51
2022/06/18 12:24:45;;;;;;;1.17;0.30;;;29.70;60.40;;;;;;5027922;28;20049;-48
2022/06/18 12:27:15;;;;;;;3.63;0.60;;;29.60;61.30;;;;;;5027947;28;20271;-48
2022/06/18 12:30:08;;;;;;;5.43;1.10;;;29.70;62.50;;;;;;5027882;28;20763;-48
2022/06/18 12:32:55;;;;;;;2.05;0.30;;;29.70;61.40;;;;;;5028740;28;20052;-53
2022/06/18 12:35:30;;;;;;;1.75;0.22;;;29.60;60.80;;;;;;5028371;28;20048;-51
2022/06/18 12:38:14;;;;;;;2.38;0.30;;;29.70;61.80;;;;;;5027673;28;20049;-54
2022/06/18 12:40:58;;;;;;;2.42;0.40;;;29.90;61.80;;;;;;5027387;28;20121;-56
2022/06/18 12:43:34;;;;;;;4.00;0.43;;;30.00;60.60;;;;;;5028115;28;20484;-48
2022/06/18 12:46:07;;;;;;;3.05;0.40;;;29.90;59.90;;;;;;5026835;28;20124;-48
2022/06/18 12:48:57;;;;;;;5.13;1.02;;;29.90;60.70;;;;;;5027085;28;20564;-49
2022/06/18 12:51:23;;;;;;;2.58;0.20;;;29.90;61.00;;;;;;5027288;28;20085;-49
2022/06/18 12:54:22;;;;;;;4.72;0.50;;;30.00;61.30;;;;;;5027026;28;20073;-48
2022/06/18 12:57:20;;;;;;;2.33;0.28;;;29.90;62.30;;;;;;5027352;28;20096;-48
2022/06/18 13:00:00;;;;;;;2.47;0.30;;;29.80;62.00;;;;;;5026567;28;20506;-43
2022/06/18 13:02:47;;;;;;;2.58;0.32;;;29.70;60.10;;;;;;5025520;28;20046;-46
2022/06/18 13:05:24;;;;;;;0.95;0.25;;;29.80;61.40;;;;;;5024811;28;20041;-47
2022/06/18 13:08:13;;;;;;;3.65;0.30;;;29.80;61.80;;;;;;5025973;28;20099;-48
2022/06/18 13:10:55;;;;;;;1.75;0.20;;;29.90;61.20;;;;;;5026770;28;20041;-51
2022/06/18 13:13:36;;;;;;;0.77;0.20;;;29.80;60.60;;;;;;5026236;28;20111;-50
2022/06/18 13:16:20;;;;;;;2.50;0.25;;;29.70;61.00;;;;;;5026175;28;20052;-51
2022/06/18 13:18:52;;;;;;;1.58;0.25;;;29.60;62.60;;;;;;5026736;28;20041;-54
2022/06/18 13:21:17;;;;;;;;;;;29.60;61.70;;;;;;5025205;28;20080;-53